sensor_id;sensor_type;location;lat;lon;timestamp;pressure;altitude;pressure_sealevel;temperature;humidity
65718;BME280;52445;52.466;-1.016;2024-01-30T00:00:36;100422.34;;;10.97;84.61
65718;BME280;52445;52.466;-1.016;2024-01-30T00:03:03;100430.16;;;11.00;84.39
65718;BME280;52445;52.466;-1.016;2024-01-30T00:05:30;100424.97;;;11.03;84.78
65718;BME280;52445;52.466;-1.016;2024-01-30T00:07:57;100425.81;;;11.02;84.37
65718;BME280;52445;52.466;-1.016;2024-01-30T00:10:23;100430.16;;;11.03;85.05
65718;BME280;52445;52.466;-1.016;2024-01-30T00:12:50;100425.81;;;11.05;84.64
65718;BME280;52445;52.466;-1.016;2024-01-30T00:15:17;100412.00;;;11.03;84.14
65718;BME280;52445;52.466;-1.016;2024-01-30T00:17:44;100401.63;;;11.00;84.96
65718;BME280;52445;52.466;-1.016;2024-01-30T00:20:11;100399.03;;;10.99;84.55
65718;BME280;52445;52.466;-1.016;2024-01-30T00:22:39;100394.72;;;11.02;84.14
65718;BME280;52445;52.466;-1.016;2024-01-30T00:25:09;100400.78;;;11.04;83.51
65718;BME280;52445;52.466;-1.016;2024-01-30T00:27:36;100389.53;;;11.05;83.27
65718;BME280;52445;52.466;-1.016;2024-01-30T00:30:03;100394.72;;;11.09;83.42
65718;BME280;52445;52.466;-1.016;2024-01-30T00:32:29;100399.06;;;11.16;84.09
65718;BME280;52445;52.466;-1.016;2024-01-30T00:34:56;100401.66;;;11.19;83.13
65718;BME280;52445;52.466;-1.016;2024-01-30T00:37:23;100407.69;;;11.23;83.43
65718;BME280;52445;52.466;-1.016;2024-01-30T00:39:51;100410.28;;;11.27;82.65
65718;BME280;52445;52.466;-1.016;2024-01-30T00:42:19;100405.97;;;11.29;82.13
65718;BME280;52445;52.466;-1.016;2024-01-30T00:44:46;100395.59;;;11.25;82.91
65718;BME280;52445;52.466;-1.016;2024-01-30T00:47:12;100401.63;;;11.28;83.23
65718;BME280;52445;52.466;-1.016;2024-01-30T00:49:39;100400.81;;;11.28;82.23
65718;BME280;52445;52.466;-1.016;2024-01-30T00:52:08;100406.84;;;11.31;82.12
65718;BME280;52445;52.466;-1.016;2024-01-30T00:54:35;100405.97;;;11.36;82.05
65718;BME280;52445;52.466;-1.016;2024-01-30T00:57:02;100404.25;;;11.38;81.74
65718;BME280;52445;52.466;-1.016;2024-01-30T00:59:29;100405.09;;;11.37;82.81
65718;BME280;52445;52.466;-1.016;2024-01-30T01:01:56;100399.91;;;11.37;82.24
65718;BME280;52445;52.466;-1.016;2024-01-30T01:04:22;100396.47;;;11.36;81.81
65718;BME280;52445;52.466;-1.016;2024-01-30T01:06:50;100397.31;;;11.35;82.91
65718;BME280;52445;52.466;-1.016;2024-01-30T01:09:18;100395.59;;;11.36;81.60
65718;BME280;52445;52.466;-1.016;2024-01-30T01:11:45;100393.00;;;11.34;82.58
65718;BME280;52445;52.466;-1.016;2024-01-30T01:14:13;100409.44;;;11.33;81.51
65718;BME280;52445;52.466;-1.016;2024-01-30T01:16:40;100413.75;;;11.37;81.33
65718;BME280;52445;52.466;-1.016;2024-01-30T01:19:08;100415.47;;;11.37;80.73
65718;BME280;52445;52.466;-1.016;2024-01-30T01:21:35;100412.03;;;11.38;81.54
65718;BME280;52445;52.466;-1.016;2024-01-30T01:24:03;100405.13;;;11.34;80.44
65718;BME280;52445;52.466;-1.016;2024-01-30T01:26:31;100406.84;;;11.35;80.63
65718;BME280;52445;52.466;-1.016;2024-01-30T01:28:59;100406.84;;;11.31;80.00
65718;BME280;52445;52.466;-1.016;2024-01-30T01:31:26;100405.13;;;11.30;79.84
65718;BME280;52445;52.466;-1.016;2024-01-30T01:33:56;100406.84;;;11.19;79.62
65718;BME280;52445;52.466;-1.016;2024-01-30T01:36:24;100413.75;;;11.26;80.47
65718;BME280;52445;52.466;-1.016;2024-01-30T01:38:51;100416.34;;;11.26;79.99
65718;BME280;52445;52.466;-1.016;2024-01-30T01:41:19;100407.69;;;11.23;80.52
65718;BME280;52445;52.466;-1.016;2024-01-30T01:43:46;100405.97;;;11.20;80.70
65718;BME280;52445;52.466;-1.016;2024-01-30T01:46:16;100405.97;;;11.18;79.63
65718;BME280;52445;52.466;-1.016;2024-01-30T01:48:46;100405.09;;;11.15;79.69
65718;BME280;52445;52.466;-1.016;2024-01-30T01:51:14;100403.38;;;11.08;79.89
65718;BME280;52445;52.466;-1.016;2024-01-30T01:53:42;100415.44;;;11.05;80.28
65718;BME280;52445;52.466;-1.016;2024-01-30T01:56:09;100404.22;;;11.08;80.14
65718;BME280;52445;52.466;-1.016;2024-01-30T01:58:36;100408.56;;;11.08;80.16
65718;BME280;52445;52.466;-1.016;2024-01-30T02:01:04;100408.56;;;11.08;80.02
65718;BME280;52445;52.466;-1.016;2024-01-30T02:03:31;100410.28;;;11.05;79.27
65718;BME280;52445;52.466;-1.016;2024-01-30T02:05:58;100410.28;;;10.98;80.39
65718;BME280;52445;52.466;-1.016;2024-01-30T02:08:25;100425.84;;;10.99;79.91
65718;BME280;52445;52.466;-1.016;2024-01-30T02:10:54;100417.16;;;10.97;79.79
65718;BME280;52445;52.466;-1.016;2024-01-30T02:13:21;100415.47;;;10.99;80.38
65718;BME280;52445;52.466;-1.016;2024-01-30T02:15:51;100414.59;;;11.00;79.28
65718;BME280;52445;52.466;-1.016;2024-01-30T02:18:19;100411.13;;;10.95;79.39
65718;BME280;52445;52.466;-1.016;2024-01-30T02:20:47;100410.28;;;10.96;79.43
65718;BME280;52445;52.466;-1.016;2024-01-30T02:23:16;100414.59;;;10.91;79.81
65718;BME280;52445;52.466;-1.016;2024-01-30T02:25:43;100408.53;;;10.89;80.08
65718;BME280;52445;52.466;-1.016;2024-01-30T02:28:12;100415.44;;;10.90;79.44
65718;BME280;52445;52.466;-1.016;2024-01-30T02:30:39;100418.03;;;10.91;79.95
65718;BME280;52445;52.466;-1.016;2024-01-30T02:33:07;100422.34;;;10.88;80.14
65718;BME280;52445;52.466;-1.016;2024-01-30T02:35:34;100423.19;;;10.90;79.93
65718;BME280;52445;52.466;-1.016;2024-01-30T02:38:01;100425.78;;;10.90;80.05
65718;BME280;52445;52.466;-1.016;2024-01-30T02:40:29;100420.59;;;10.90;79.92
65718;BME280;52445;52.466;-1.016;2024-01-30T02:42:58;100421.47;;;10.87;80.07
65718;BME280;52445;52.466;-1.016;2024-01-30T02:45:25;100413.69;;;10.86;79.64
65718;BME280;52445;52.466;-1.016;2024-01-30T02:47:52;100424.06;;;10.83;79.68
65718;BME280;52445;52.466;-1.016;2024-01-30T02:50:19;100418.88;;;10.83;80.56
65718;BME280;52445;52.466;-1.016;2024-01-30T02:52:46;100418.88;;;10.83;79.28
65718;BME280;52445;52.466;-1.016;2024-01-30T02:55:13;100411.94;;;10.78;79.28
65718;BME280;52445;52.466;-1.016;2024-01-30T02:57:39;100426.66;;;10.76;79.80
65718;BME280;52445;52.466;-1.016;2024-01-30T03:00:07;100419.72;;;10.77;80.45
65718;BME280;52445;52.466;-1.016;2024-01-30T03:02:36;100414.56;;;10.75;79.61
65718;BME280;52445;52.466;-1.016;2024-01-30T03:05:04;100413.69;;;10.73;80.42
65718;BME280;52445;52.466;-1.016;2024-01-30T03:07:31;100412.81;;;10.70;79.25
65718;BME280;52445;52.466;-1.016;2024-01-30T03:09:58;100409.34;;;10.67;80.04
65718;BME280;52445;52.466;-1.016;2024-01-30T03:12:24;100411.09;;;10.65;80.32
65718;BME280;52445;52.466;-1.016;2024-01-30T03:14:51;100422.25;;;10.61;80.41
65718;BME280;52445;52.466;-1.016;2024-01-30T03:17:18;100423.13;;;10.62;79.51
65718;BME280;52445;52.466;-1.016;2024-01-30T03:19:45;100415.38;;;10.62;80.68
65718;BME280;52445;52.466;-1.016;2024-01-30T03:22:12;100420.53;;;10.59;80.31
65718;BME280;52445;52.466;-1.016;2024-01-30T03:24:39;100417.94;;;10.56;80.42
65718;BME280;52445;52.466;-1.016;2024-01-30T03:27:06;100423.97;;;10.54;79.93
65718;BME280;52445;52.466;-1.016;2024-01-30T03:29:32;100418.78;;;10.51;80.82
65718;BME280;52445;52.466;-1.016;2024-01-30T03:31:59;100416.19;;;10.51;80.15
65718;BME280;52445;52.466;-1.016;2024-01-30T03:34:26;100413.63;;;10.48;79.93
65718;BME280;52445;52.466;-1.016;2024-01-30T03:36:53;100413.63;;;10.48;80.54
65718;BME280;52445;52.466;-1.016;2024-01-30T03:39:20;100417.03;;;10.47;80.50
65718;BME280;52445;52.466;-1.016;2024-01-30T03:41:46;100422.22;;;10.47;79.88
65718;BME280;52445;52.466;-1.016;2024-01-30T03:44:13;100420.50;;;10.45;80.10
65718;BME280;52445;52.466;-1.016;2024-01-30T03:46:39;100419.63;;;10.44;80.12
65718;BME280;52445;52.466;-1.016;2024-01-30T03:49:07;100417.03;;;10.44;80.56
65718;BME280;52445;52.466;-1.016;2024-01-30T03:51:35;100415.25;;;10.40;81.02
65718;BME280;52445;52.466;-1.016;2024-01-30T03:54:05;100429.94;;;10.41;80.65
65718;BME280;52445;52.466;-1.016;2024-01-30T03:56:32;100435.13;;;10.39;80.55
65718;BME280;52445;52.466;-1.016;2024-01-30T03:58:58;100430.81;;;10.37;80.75
65718;BME280;52445;52.466;-1.016;2024-01-30T04:01:27;100429.91;;;10.36;80.80
65718;BME280;52445;52.466;-1.016;2024-01-30T04:03:53;100439.41;;;10.36;80.61
65718;BME280;52445;52.466;-1.016;2024-01-30T04:06:20;100442.84;;;10.35;80.65
65718;BME280;52445;52.466;-1.016;2024-01-30T04:08:47;100443.72;;;10.32;81.45
65718;BME280;52445;52.466;-1.016;2024-01-30T04:11:13;100448.00;;;10.32;81.08
65718;BME280;52445;52.466;-1.016;2024-01-30T04:13:40;100441.13;;;10.31;81.23
65718;BME280;52445;52.466;-1.016;2024-01-30T04:16:19;100444.56;;;10.29;80.97
65718;BME280;52445;52.466;-1.016;2024-01-30T04:18:46;100449.72;;;10.26;81.13
65718;BME280;52445;52.466;-1.016;2024-01-30T04:21:13;100447.13;;;10.25;81.30
65718;BME280;52445;52.466;-1.016;2024-01-30T04:23:41;100448.84;;;10.26;81.21
65718;BME280;52445;52.466;-1.016;2024-01-30T04:26:08;100455.75;;;10.22;81.76
65718;BME280;52445;52.466;-1.016;2024-01-30T04:28:34;100457.47;;;10.23;81.13
65718;BME280;52445;52.466;-1.016;2024-01-30T04:31:01;100454.88;;;10.22;82.06
65718;BME280;52445;52.466;-1.016;2024-01-30T04:33:28;100466.97;;;10.21;81.82
65718;BME280;52445;52.466;-1.016;2024-01-30T04:35:56;100469.56;;;10.23;82.18
65718;BME280;52445;52.466;-1.016;2024-01-30T04:38:23;100500.63;;;10.23;82.33
65718;BME280;52445;52.466;-1.016;2024-01-30T04:40:50;100508.38;;;10.18;81.90
65718;BME280;52445;52.466;-1.016;2024-01-30T04:43:16;100503.97;;;10.08;80.66
65718;BME280;52445;52.466;-1.016;2024-01-30T04:45:47;100509.94;;;9.97;80.72
65718;BME280;52445;52.466;-1.016;2024-01-30T04:48:14;100513.28;;;9.81;80.38
65718;BME280;52445;52.466;-1.016;2024-01-30T04:50:40;100520.06;;;9.69;80.02
65718;BME280;52445;52.466;-1.016;2024-01-30T04:53:07;100527.75;;;9.58;80.17
65718;BME280;52445;52.466;-1.016;2024-01-30T04:55:35;100535.31;;;9.38;79.77
65718;BME280;52445;52.466;-1.016;2024-01-30T04:58:02;100540.41;;;9.29;79.94
65718;BME280;52445;52.466;-1.016;2024-01-30T05:00:29;100537.66;;;9.13;79.89
65718;BME280;52445;52.466;-1.016;2024-01-30T05:02:55;100540.28;;;9.16;79.78
65718;BME280;52445;52.466;-1.016;2024-01-30T05:05:22;100544.44;;;9.05;79.94
65718;BME280;52445;52.466;-1.016;2024-01-30T05:07:49;100548.75;;;9.06;80.05
65718;BME280;52445;52.466;-1.016;2024-01-30T05:10:16;100558.16;;;8.99;79.56
65718;BME280;52445;52.466;-1.016;2024-01-30T05:12:42;100558.06;;;8.91;80.29
65718;BME280;52445;52.466;-1.016;2024-01-30T05:15:09;100560.66;;;8.93;79.96
65718;BME280;52445;52.466;-1.016;2024-01-30T05:17:36;100581.16;;;8.79;80.24
65718;BME280;52445;52.466;-1.016;2024-01-30T05:20:03;100579.47;;;8.84;80.65
65718;BME280;52445;52.466;-1.016;2024-01-30T05:22:31;100587.22;;;8.84;80.25
65718;BME280;52445;52.466;-1.016;2024-01-30T05:24:58;100591.38;;;8.72;80.94
65718;BME280;52445;52.466;-1.016;2024-01-30T05:27:24;100600.69;;;8.61;80.26
65718;BME280;52445;52.466;-1.016;2024-01-30T05:29:51;100603.28;;;8.61;79.89
65718;BME280;52445;52.466;-1.016;2024-01-30T05:32:18;100605.84;;;8.61;79.83
65718;BME280;52445;52.466;-1.016;2024-01-30T05:34:46;100610.16;;;8.59;79.39
65718;BME280;52445;52.466;-1.016;2024-01-30T05:37:13;100609.94;;;8.46;79.36
65718;BME280;52445;52.466;-1.016;2024-01-30T05:39:43;100616.84;;;8.47;79.29
65718;BME280;52445;52.466;-1.016;2024-01-30T05:42:10;100631.47;;;8.48;79.25
65718;BME280;52445;52.466;-1.016;2024-01-30T05:44:36;100630.44;;;8.37;79.71
65718;BME280;52445;52.466;-1.016;2024-01-30T05:47:03;100638.22;;;8.40;79.70
65718;BME280;52445;52.466;-1.016;2024-01-30T05:49:30;100639.94;;;8.38;79.72
65718;BME280;52445;52.466;-1.016;2024-01-30T05:51:56;100641.53;;;8.31;79.84
65718;BME280;52445;52.466;-1.016;2024-01-30T05:54:23;100646.81;;;8.38;79.41
65718;BME280;52445;52.466;-1.016;2024-01-30T05:56:50;100652.84;;;8.38;79.73
65718;BME280;52445;52.466;-1.016;2024-01-30T05:59:16;100653.56;;;8.29;79.46
65718;BME280;52445;52.466;-1.016;2024-01-30T06:01:47;100666.56;;;8.37;79.26
65718;BME280;52445;52.466;-1.016;2024-01-30T06:04:14;100668.25;;;8.33;79.53
65718;BME280;52445;52.466;-1.016;2024-01-30T06:06:41;100674.91;;;8.20;79.18
65718;BME280;52445;52.466;-1.016;2024-01-30T06:09:08;100686.97;;;8.21;79.63
65718;BME280;52445;52.466;-1.016;2024-01-30T06:11:36;100685.09;;;8.11;78.61
65718;BME280;52445;52.466;-1.016;2024-01-30T06:14:02;100690.06;;;8.02;79.12
65718;BME280;52445;52.466;-1.016;2024-01-30T06:16:29;100694.09;;;7.86;77.98
65718;BME280;52445;52.466;-1.016;2024-01-30T06:18:56;100707.97;;;7.92;78.45
65718;BME280;52445;52.466;-1.016;2024-01-30T06:21:23;100714.53;;;7.76;78.56
65718;BME280;52445;52.466;-1.016;2024-01-30T06:23:50;100722.44;;;7.84;78.63
65718;BME280;52445;52.466;-1.016;2024-01-30T06:26:17;100728.22;;;7.74;77.69
65718;BME280;52445;52.466;-1.016;2024-01-30T06:28:43;100724.03;;;7.79;78.25
65718;BME280;52445;52.466;-1.016;2024-01-30T06:31:10;100740.25;;;7.73;78.42
65718;BME280;52445;52.466;-1.016;2024-01-30T06:33:37;100742.69;;;7.65;78.56
65718;BME280;52445;52.466;-1.016;2024-01-30T06:36:04;100743.47;;;7.61;78.01
65718;BME280;52445;52.466;-1.016;2024-01-30T06:38:31;100751.13;;;7.58;78.42
65718;BME280;52445;52.466;-1.016;2024-01-30T06:40:57;100747.38;;;7.43;78.76
65718;BME280;52445;52.466;-1.016;2024-01-30T06:43:24;100765.56;;;7.50;77.69
65718;BME280;52445;52.466;-1.016;2024-01-30T06:45:51;100776.56;;;7.42;77.88
65718;BME280;52445;52.466;-1.016;2024-01-30T06:48:18;100780.03;;;7.44;77.32
65718;BME280;52445;52.466;-1.016;2024-01-30T06:50:45;100776.66;;;7.45;77.60
65718;BME280;52445;52.466;-1.016;2024-01-30T06:53:12;100779.97;;;7.40;78.68
65718;BME280;52445;52.466;-1.016;2024-01-30T06:55:39;100785.13;;;7.40;78.27
65718;BME280;52445;52.466;-1.016;2024-01-30T06:58:06;100795.31;;;7.35;78.82
65718;BME280;52445;52.466;-1.016;2024-01-30T07:00:32;100792.69;;;7.33;78.13
65718;BME280;52445;52.466;-1.016;2024-01-30T07:02:59;100809.69;;;7.25;78.40
65718;BME280;52445;52.466;-1.016;2024-01-30T07:05:26;100813.28;;;7.32;77.40
65718;BME280;52445;52.466;-1.016;2024-01-30T07:07:54;100808.88;;;7.28;77.91
65718;BME280;52445;52.466;-1.016;2024-01-30T07:10:21;100819.28;;;7.31;77.42
65718;BME280;52445;52.466;-1.016;2024-01-30T07:12:48;100811.31;;;7.20;78.26
65718;BME280;52445;52.466;-1.016;2024-01-30T07:15:14;100815.03;;;6.98;77.48
65718;BME280;52445;52.466;-1.016;2024-01-30T07:17:44;100818.72;;;7.06;78.14
65718;BME280;52445;52.466;-1.016;2024-01-30T07:20:11;100819.59;;;7.08;77.85
65718;BME280;52445;52.466;-1.016;2024-01-30T07:22:43;100831.59;;;7.06;77.54
65718;BME280;52445;52.466;-1.016;2024-01-30T07:25:10;100833.13;;;6.99;79.15
65718;BME280;52445;52.466;-1.016;2024-01-30T07:27:37;100833.19;;;7.02;77.71
65718;BME280;52445;52.466;-1.016;2024-01-30T07:30:05;100845.81;;;6.91;77.61
65718;BME280;52445;52.466;-1.016;2024-01-30T07:32:32;100861.50;;;7.01;77.19
65718;BME280;52445;52.466;-1.016;2024-01-30T07:34:58;100852.91;;;7.02;78.02
65718;BME280;52445;52.466;-1.016;2024-01-30T07:37:34;100864.47;;;6.82;78.54
65718;BME280;52445;52.466;-1.016;2024-01-30T07:40:02;100875.84;;;6.91;77.46
65718;BME280;52445;52.466;-1.016;2024-01-30T07:42:29;100881.16;;;6.97;78.03
65718;BME280;52445;52.466;-1.016;2024-01-30T07:44:57;100890.66;;;7.00;78.26
65718;BME280;52445;52.466;-1.016;2024-01-30T07:47:24;100900.97;;;7.00;77.00
65718;BME280;52445;52.466;-1.016;2024-01-30T07:49:51;100897.16;;;6.85;78.81
65718;BME280;52445;52.466;-1.016;2024-01-30T07:52:18;100905.91;;;6.90;78.25
65718;BME280;52445;52.466;-1.016;2024-01-30T07:54:45;100906.25;;;6.72;77.99
65718;BME280;52445;52.466;-1.016;2024-01-30T07:57:12;100903.81;;;6.77;78.36
65718;BME280;52445;52.466;-1.016;2024-01-30T07:59:38;100917.66;;;6.82;77.68
65718;BME280;52445;52.466;-1.016;2024-01-30T08:02:07;100917.75;;;6.85;76.92
65718;BME280;52445;52.466;-1.016;2024-01-30T08:04:35;100933.13;;;6.82;76.77
65718;BME280;52445;52.466;-1.016;2024-01-30T08:07:04;100934.13;;;6.87;77.25
65718;BME280;52445;52.466;-1.016;2024-01-30T08:09:30;100944.47;;;6.89;77.76
65718;BME280;52445;52.466;-1.016;2024-01-30T08:11:57;100955.50;;;6.83;77.65
65718;BME280;52445;52.466;-1.016;2024-01-30T08:14:24;100964.19;;;6.88;76.85
65718;BME280;52445;52.466;-1.016;2024-01-30T08:16:52;100960.63;;;6.83;77.07
65718;BME280;52445;52.466;-1.016;2024-01-30T08:19:20;100958.81;;;6.79;77.47
65718;BME280;52445;52.466;-1.016;2024-01-30T08:21:49;100968.22;;;6.78;77.70
65718;BME280;52445;52.466;-1.016;2024-01-30T08:24:16;100983.84;;;6.85;77.46
65718;BME280;52445;52.466;-1.016;2024-01-30T08:26:42;100980.31;;;6.81;78.07
65718;BME280;52445;52.466;-1.016;2024-01-30T08:29:09;100994.91;;;6.82;77.38
65718;BME280;52445;52.466;-1.016;2024-01-30T08:31:38;100994.88;;;6.79;76.44
65718;BME280;52445;52.466;-1.016;2024-01-30T08:34:05;101000.00;;;6.79;77.15
65718;BME280;52445;52.466;-1.016;2024-01-30T08:36:32;101005.06;;;6.76;76.67
65718;BME280;52445;52.466;-1.016;2024-01-30T08:38:59;101012.88;;;6.79;77.25
65718;BME280;52445;52.466;-1.016;2024-01-30T08:41:30;101016.19;;;6.75;77.01
65718;BME280;52445;52.466;-1.016;2024-01-30T08:43:57;101023.25;;;6.82;77.28
65718;BME280;52445;52.466;-1.016;2024-01-30T08:46:23;101032.78;;;6.85;76.58
65718;BME280;52445;52.466;-1.016;2024-01-30T08:48:50;101037.75;;;6.78;77.60
65718;BME280;52445;52.466;-1.016;2024-01-30T08:51:17;101045.69;;;6.86;76.51
65718;BME280;52445;52.466;-1.016;2024-01-30T08:53:44;101049.19;;;6.88;76.61
65718;BME280;52445;52.466;-1.016;2024-01-30T08:56:13;101050.81;;;6.85;78.20
65718;BME280;52445;52.466;-1.016;2024-01-30T08:58:40;101051.50;;;6.79;77.72
65718;BME280;52445;52.466;-1.016;2024-01-30T09:01:07;101058.56;;;6.86;76.79
65718;BME280;52445;52.466;-1.016;2024-01-30T09:03:33;101063.66;;;6.83;78.20
65718;BME280;52445;52.466;-1.016;2024-01-30T09:06:00;101071.22;;;6.78;78.26
65718;BME280;52445;52.466;-1.016;2024-01-30T09:08:27;101065.56;;;6.61;77.59
65718;BME280;52445;52.466;-1.016;2024-01-30T09:10:54;101081.22;;;6.67;78.09
65718;BME280;52445;52.466;-1.016;2024-01-30T09:13:21;101082.13;;;6.69;78.25
65718;BME280;52445;52.466;-1.016;2024-01-30T09:15:49;101089.19;;;6.77;76.88
65718;BME280;52445;52.466;-1.016;2024-01-30T09:18:16;101099.66;;;6.81;76.54
65718;BME280;52445;52.466;-1.016;2024-01-30T09:20:43;101096.09;;;6.78;77.33
65718;BME280;52445;52.466;-1.016;2024-01-30T09:23:11;101105.25;;;6.68;77.26
65718;BME280;52445;52.466;-1.016;2024-01-30T09:25:38;101107.00;;;6.69;77.24
65718;BME280;52445;52.466;-1.016;2024-01-30T09:28:05;101116.56;;;6.73;78.26
65718;BME280;52445;52.466;-1.016;2024-01-30T09:30:32;101113.00;;;6.69;77.60
65718;BME280;52445;52.466;-1.016;2024-01-30T09:32:59;101121.69;;;6.72;78.26
65718;BME280;52445;52.466;-1.016;2024-01-30T09:35:26;101137.25;;;6.76;77.35
65718;BME280;52445;52.466;-1.016;2024-01-30T09:37:55;101139.69;;;6.72;78.40
65718;BME280;52445;52.466;-1.016;2024-01-30T09:40:24;101138.50;;;6.60;78.19
65718;BME280;52445;52.466;-1.016;2024-01-30T09:42:51;101144.75;;;6.68;77.76
65718;BME280;52445;52.466;-1.016;2024-01-30T09:45:18;101154.91;;;6.64;77.17
65718;BME280;52445;52.466;-1.016;2024-01-30T09:47:46;101146.25;;;6.62;76.79
65718;BME280;52445;52.466;-1.016;2024-01-30T09:50:17;101152.28;;;6.62;78.18
65718;BME280;52445;52.466;-1.016;2024-01-30T09:52:44;101159.25;;;6.66;77.72
65718;BME280;52445;52.466;-1.016;2024-01-30T09:55:12;101161.66;;;6.60;77.04
65718;BME280;52445;52.466;-1.016;2024-01-30T09:57:39;101169.56;;;6.66;77.06
65718;BME280;52445;52.466;-1.016;2024-01-30T10:00:06;101166.19;;;6.67;77.76
65718;BME280;52445;52.466;-1.016;2024-01-30T10:02:35;101162.78;;;6.68;77.42
65718;BME280;52445;52.466;-1.016;2024-01-30T10:05:02;101174.75;;;6.68;76.76
65718;BME280;52445;52.466;-1.016;2024-01-30T10:07:29;101187.63;;;6.68;77.73
65718;BME280;52445;52.466;-1.016;2024-01-30T10:09:57;101197.06;;;6.67;76.89
65718;BME280;52445;52.466;-1.016;2024-01-30T10:12:26;101196.09;;;6.64;77.61
65718;BME280;52445;52.466;-1.016;2024-01-30T10:14:56;101199.88;;;6.75;77.24
65718;BME280;52445;52.466;-1.016;2024-01-30T10:17:24;101191.31;;;6.76;78.03
65718;BME280;52445;52.466;-1.016;2024-01-30T10:19:59;101206.88;;;6.79;76.87
65718;BME280;52445;52.466;-1.016;2024-01-30T10:22:27;101208.44;;;6.74;77.22
65718;BME280;52445;52.466;-1.016;2024-01-30T10:24:56;101216.00;;;6.69;78.15
65718;BME280;52445;52.466;-1.016;2024-01-30T10:27:26;101228.94;;;6.71;77.46
65718;BME280;52445;52.466;-1.016;2024-01-30T10:29:53;101233.19;;;6.71;76.97
65718;BME280;52445;52.466;-1.016;2024-01-30T10:32:21;101237.66;;;6.76;76.80
65718;BME280;52445;52.466;-1.016;2024-01-30T10:34:48;101233.50;;;6.80;76.87
65718;BME280;52445;52.466;-1.016;2024-01-30T10:37:17;101245.72;;;6.86;78.23
65718;BME280;52445;52.466;-1.016;2024-01-30T10:39:46;101250.91;;;6.87;77.33
65718;BME280;52445;52.466;-1.016;2024-01-30T10:42:15;101252.66;;;6.88;77.33
65718;BME280;52445;52.466;-1.016;2024-01-30T10:47:26;101266.25;;;6.84;76.81
65718;BME280;52445;52.466;-1.016;2024-01-30T10:49:54;101278.41;;;6.88;76.48
65718;BME280;52445;52.466;-1.016;2024-01-30T10:52:24;101290.44;;;6.89;76.51
65718;BME280;52445;52.466;-1.016;2024-01-30T10:54:53;101283.34;;;6.82;78.02
65718;BME280;52445;52.466;-1.016;2024-01-30T10:57:23;101295.66;;;6.91;77.43
65718;BME280;52445;52.466;-1.016;2024-01-30T10:59:56;101299.28;;;6.98;77.84
65718;BME280;52445;52.466;-1.016;2024-01-30T11:02:24;101295.09;;;7.00;78.02
65718;BME280;52445;52.466;-1.016;2024-01-30T11:04:57;101301.84;;;6.96;77.71
65718;BME280;52445;52.466;-1.016;2024-01-30T11:07:27;101312.28;;;7.01;76.38
65718;BME280;52445;52.466;-1.016;2024-01-30T11:10:02;101319.22;;;7.03;77.88
65718;BME280;52445;52.466;-1.016;2024-01-30T11:12:32;101324.25;;;6.99;77.73
65718;BME280;52445;52.466;-1.016;2024-01-30T11:15:03;101320.78;;;6.98;76.08
65718;BME280;52445;52.466;-1.016;2024-01-30T11:22:55;101333.97;;;7.07;77.60
65718;BME280;52445;52.466;-1.016;2024-01-30T11:25:23;101331.38;;;7.07;77.35
65718;BME280;52445;52.466;-1.016;2024-01-30T11:27:52;101346.00;;;7.07;77.43
65718;BME280;52445;52.466;-1.016;2024-01-30T11:35:45;101348.22;;;7.24;77.03
65718;BME280;52445;52.466;-1.016;2024-01-30T11:38:14;101347.50;;;7.28;76.79
65718;BME280;52445;52.466;-1.016;2024-01-30T11:40:45;101351.19;;;7.36;77.91
65718;BME280;52445;52.466;-1.016;2024-01-30T11:43:13;101359.22;;;7.45;77.41
65718;BME280;52445;52.466;-1.016;2024-01-30T11:45:40;101368.91;;;7.54;76.86
65718;BME280;52445;52.466;-1.016;2024-01-30T11:48:07;101368.13;;;7.55;77.12
65718;BME280;52445;52.466;-1.016;2024-01-30T11:50:38;101367.00;;;7.47;75.95
65718;BME280;52445;52.466;-1.016;2024-01-30T11:53:06;101375.69;;;7.51;76.76
65718;BME280;52445;52.466;-1.016;2024-01-30T11:55:33;101369.63;;;7.49;76.12
65718;BME280;52445;52.466;-1.016;2024-01-30T11:58:02;101376.44;;;7.46;76.10
65718;BME280;52445;52.466;-1.016;2024-01-30T12:00:29;101377.28;;;7.45;75.67
65718;BME280;52445;52.466;-1.016;2024-01-30T12:02:58;101374.66;;;7.44;77.13
65718;BME280;52445;52.466;-1.016;2024-01-30T12:05:27;101377.22;;;7.44;76.04
65718;BME280;52445;52.466;-1.016;2024-01-30T12:07:54;101384.69;;;7.36;76.95
65718;BME280;52445;52.466;-1.016;2024-01-30T12:10:22;101384.78;;;7.39;76.01
65718;BME280;52445;52.466;-1.016;2024-01-30T12:12:50;101386.66;;;7.43;77.70
65718;BME280;52445;52.466;-1.016;2024-01-30T12:15:18;101396.31;;;7.51;76.76
65718;BME280;52445;52.466;-1.016;2024-01-30T12:17:45;101393.91;;;7.55;76.29
65718;BME280;52445;52.466;-1.016;2024-01-30T12:20:14;101400.84;;;7.58;77.20
65718;BME280;52445;52.466;-1.016;2024-01-30T12:22:43;101407.66;;;7.56;77.55
65718;BME280;52445;52.466;-1.016;2024-01-30T12:27:50;101409.44;;;7.57;76.76
65718;BME280;52445;52.466;-1.016;2024-01-30T12:30:20;101400.06;;;7.61;76.75
65718;BME280;52445;52.466;-1.016;2024-01-30T12:32:50;101395.81;;;7.61;76.91
65718;BME280;52445;52.466;-1.016;2024-01-30T12:35:19;101398.44;;;7.63;75.71
65718;BME280;52445;52.466;-1.016;2024-01-30T12:37:48;101401.88;;;7.63;75.97
65718;BME280;52445;52.466;-1.016;2024-01-30T12:40:15;101405.44;;;7.67;76.61
65718;BME280;52445;52.466;-1.016;2024-01-30T12:42:43;101411.28;;;7.61;75.71
65718;BME280;52445;52.466;-1.016;2024-01-30T12:45:13;101416.69;;;7.70;76.55
65718;BME280;52445;52.466;-1.016;2024-01-30T12:47:41;101423.75;;;7.76;75.87
65718;BME280;52445;52.466;-1.016;2024-01-30T12:50:09;101427.91;;;7.71;76.65
65718;BME280;52445;52.466;-1.016;2024-01-30T12:52:39;101426.75;;;7.61;75.25
65718;BME280;52445;52.466;-1.016;2024-01-30T12:55:06;101435.38;;;7.63;76.14
65718;BME280;52445;52.466;-1.016;2024-01-30T12:57:33;101437.84;;;7.60;75.79
65718;BME280;52445;52.466;-1.016;2024-01-30T13:00:01;101437.06;;;7.61;75.11
65718;BME280;52445;52.466;-1.016;2024-01-30T13:02:29;101437.84;;;7.60;75.89